createdAt,value
2022-12-04T00:01:31.870Z,98803.91
2022-12-04T00:04:01.852Z,98803.16
2022-12-04T00:06:30.498Z,98806.50
2022-12-04T00:08:59.022Z,98805.25
2022-12-04T00:11:31.120Z,98795.53
2022-12-04T00:14:06.097Z,98812.16
2022-12-04T00:16:35.648Z,98801.13
2022-12-04T00:19:04.817Z,98805.22
2022-12-04T00:21:33.134Z,98801.72
2022-12-04T00:24:01.522Z,98808.44
2022-12-04T00:26:32.174Z,98802.84
2022-12-04T00:29:01.012Z,98801.59
2022-12-04T00:31:30.785Z,98792.94
2022-12-04T00:34:00.375Z,98809.53
2022-12-04T00:36:30.854Z,98800.44
2022-12-04T00:39:01.038Z,98799.06
2022-12-04T00:41:33.757Z,98795.78
2022-12-04T00:44:03.764Z,98795.19
2022-12-04T00:46:32.583Z,98788.38
2022-12-04T00:49:03.187Z,98806.28
2022-12-04T00:51:32.106Z,98800.50
2022-12-04T00:54:00.938Z,98804.56
2022-12-04T00:56:31.521Z,98805.13
2022-12-04T00:59:01.351Z,98806.72
2022-12-04T01:01:30.468Z,98810.00
2022-12-04T01:03:59.388Z,98803.47
2022-12-04T01:06:29.231Z,98802.66
2022-12-04T01:08:58.548Z,98802.97
2022-12-04T01:11:27.962Z,98795.72
2022-12-04T01:13:58.389Z,98806.47
2022-12-04T01:16:28.510Z,98800.69
2022-12-04T01:18:57.205Z,98807.22
2022-12-04T01:21:25.422Z,98796.47
2022-12-04T01:23:53.997Z,98810.06
2022-12-04T01:26:22.426Z,98800.75
2022-12-04T01:28:51.114Z,98798.25
2022-12-04T01:31:22.224Z,98796.84
2022-12-04T01:33:51.739Z,98776.19
2022-12-04T01:36:21.785Z,98780.78
2022-12-04T01:38:51.200Z,98781.72
2022-12-04T01:41:22.367Z,98775.25
2022-12-04T01:44:12.337Z,98781.03
2022-12-04T01:46:42.456Z,98781.44
2022-12-04T01:49:13.742Z,98787.66
2022-12-04T01:51:44.020Z,98788.41
2022-12-04T01:54:16.837Z,98784.19
2022-12-04T01:56:47.518Z,98785.31
2022-12-04T01:59:18.487Z,98778.47
2022-12-04T02:01:54.344Z,98775.94
2022-12-04T02:04:23.116Z,98783.88
2022-12-04T02:06:51.225Z,98783.38
2022-12-04T02:09:26.214Z,98783.75
2022-12-04T02:12:00.646Z,98783.91
2022-12-04T02:14:34.545Z,98776.19
2022-12-04T02:17:13.044Z,98766.84
2022-12-04T02:19:53.752Z,98774.72
2022-12-04T02:22:32.562Z,98770.06
2022-12-04T02:25:06.635Z,98775.75
2022-12-04T02:28:11.077Z,98784.78
2022-12-04T02:30:41.838Z,98772.94
2022-12-04T02:33:19.503Z,98768.84
2022-12-04T02:35:50.047Z,98760.00
2022-12-04T02:38:24.717Z,98767.72
2022-12-04T02:40:57.830Z,98769.59
2022-12-04T02:43:28.704Z,98767.81
2022-12-04T02:45:58.419Z,98764.19
2022-12-04T02:48:27.829Z,98757.59
2022-12-04T02:50:58.062Z,98750.44
2022-12-04T02:53:28.580Z,98759.97
2022-12-04T02:55:59.471Z,98757.13
2022-12-04T02:58:32.344Z,98759.47
2022-12-04T03:01:02.659Z,98769.59
2022-12-04T03:03:32.351Z,98768.31
2022-12-04T03:06:02.906Z,98766.59
2022-12-04T03:08:36.118Z,98759.00
2022-12-04T03:11:05.058Z,98765.34
2022-12-04T03:13:40.120Z,98759.00
2022-12-04T03:16:11.559Z,98750.75
2022-12-04T03:18:42.017Z,98756.00
2022-12-04T03:21:13.350Z,98748.47
2022-12-04T03:23:45.828Z,98752.06
2022-12-04T03:26:22.546Z,98750.81
2022-12-04T03:28:58.295Z,98733.22
2022-12-04T03:31:33.222Z,98746.16
2022-12-04T03:34:04.466Z,98744.59
2022-12-04T03:36:37.914Z,98736.53
2022-12-04T03:39:10.307Z,98740.22
2022-12-04T03:41:50.088Z,98734.63
2022-12-04T03:44:24.565Z,98737.81
2022-12-04T03:46:56.458Z,98730.88
2022-12-04T03:49:29.206Z,98728.97
2022-12-04T03:52:01.475Z,98729.44
2022-12-04T03:54:32.258Z,98737.91
2022-12-04T03:57:03.179Z,98734.94
2022-12-04T03:59:38.973Z,98737.75
2022-12-04T04:02:10.040Z,98743.75
2022-12-04T04:04:41.305Z,98749.53
2022-12-04T04:07:10.861Z,98737.81
2022-12-04T04:09:42.785Z,98744.50
2022-12-04T04:12:16.145Z,98736.94
2022-12-04T04:15:08.125Z,98744.28
2022-12-04T04:17:58.610Z,98736.25
2022-12-04T04:20:51.970Z,98733.81
2022-12-04T04:23:38.960Z,98738.44
2022-12-04T04:26:08.164Z,98735.06
2022-12-04T04:28:38.402Z,98732.81
2022-12-04T04:31:13.049Z,98727.78
2022-12-04T04:33:49.735Z,98730.03
2022-12-04T04:36:25.368Z,98730.72
2022-12-04T04:39:01.203Z,98734.09
2022-12-04T04:41:35.411Z,98745.25
2022-12-04T04:44:10.167Z,98746.00
2022-12-04T04:46:42.015Z,98738.50
2022-12-04T04:49:12.281Z,98744.59
2022-12-04T04:51:40.537Z,98742.13
2022-12-04T04:54:11.150Z,98747.06
2022-12-04T04:56:42.047Z,98742.84
2022-12-04T04:59:10.644Z,98742.13
2022-12-04T05:01:40.857Z,98738.09
2022-12-04T05:04:09.673Z,98750.69
2022-12-04T05:06:37.902Z,98746.25
2022-12-04T05:09:06.677Z,98754.00
2022-12-04T05:11:34.923Z,98763.00
2022-12-04T05:14:03.460Z,98761.19
2022-12-04T05:16:32.746Z,98755.38
2022-12-04T05:19:23.344Z,98763.31
2022-12-04T05:21:51.569Z,98756.69
2022-12-04T05:24:20.002Z,98756.00
2022-12-04T05:26:48.063Z,98764.22
2022-12-04T05:29:16.501Z,98746.44
2022-12-04T05:31:45.866Z,98745.97
2022-12-04T05:34:17.012Z,98762.31
2022-12-04T05:36:45.464Z,98743.97
2022-12-04T05:39:14.621Z,98748.25
2022-12-04T05:41:42.633Z,98759.63
2022-12-04T05:44:10.911Z,98758.34
2022-12-04T05:46:39.945Z,98758.78
2022-12-04T05:49:08.795Z,98752.63
2022-12-04T05:51:38.978Z,98759.41
2022-12-04T05:54:08.549Z,98758.31
2022-12-04T05:56:38.503Z,98761.38
2022-12-04T05:59:07.647Z,98765.34
2022-12-04T06:01:36.505Z,98770.69
2022-12-04T06:04:05.700Z,98761.72
2022-12-04T06:06:34.163Z,98768.84
2022-12-04T06:09:04.703Z,98752.75
2022-12-04T06:11:34.564Z,98749.72
2022-12-04T06:14:05.848Z,98751.56
2022-12-04T06:16:37.048Z,98760.91
2022-12-04T06:19:07.569Z,98757.59
2022-12-04T06:21:38.745Z,98759.38
2022-12-04T06:24:14.862Z,98756.50
2022-12-04T06:27:04.023Z,98752.13
2022-12-04T06:29:32.047Z,98760.75
2022-12-04T06:32:03.360Z,98761.50
2022-12-04T06:34:32.578Z,98766.56
2022-12-04T06:37:00.786Z,98763.78
2022-12-04T06:39:30.658Z,98768.72
2022-12-04T06:41:58.810Z,98776.16
2022-12-04T06:44:27.185Z,98774.13
2022-12-04T06:46:55.451Z,98776.66
2022-12-04T06:49:25.554Z,98771.50
2022-12-04T06:51:53.607Z,98775.03
2022-12-04T06:54:21.933Z,98774.41
2022-12-04T06:56:51.432Z,98780.50
2022-12-04T06:59:19.941Z,98779.78
2022-12-04T07:01:48.305Z,98781.25
2022-12-04T07:04:16.714Z,98778.31
2022-12-04T07:06:44.770Z,98776.38
2022-12-04T07:09:15.334Z,98776.53
2022-12-04T07:11:44.055Z,98772.19
2022-12-04T07:14:14.677Z,98773.13
2022-12-04T07:16:43.607Z,98774.19
2022-12-04T07:19:13.771Z,98776.16
2022-12-04T07:21:42.726Z,98767.53
2022-12-04T07:24:15.644Z,98762.91
2022-12-04T07:26:44.044Z,98771.94
2022-12-04T07:29:13.850Z,98775.31
2022-12-04T07:31:42.050Z,98774.72
2022-12-04T07:34:10.535Z,98790.06
2022-12-04T07:36:40.251Z,98767.56
2022-12-04T07:39:08.743Z,98769.31
2022-12-04T07:41:37.007Z,98775.25
2022-12-04T07:44:05.902Z,98773.50
2022-12-04T07:46:38.096Z,98771.28
2022-12-04T07:49:06.469Z,98778.03
2022-12-04T07:51:34.531Z,98784.78
2022-12-04T07:54:04.344Z,98788.25
2022-12-04T07:56:32.832Z,98800.28
2022-12-04T07:59:01.230Z,98794.94
2022-12-04T08:01:29.877Z,98810.97
2022-12-04T08:04:01.119Z,98813.44
2022-12-04T08:06:31.009Z,98804.06
2022-12-04T08:09:01.525Z,98809.09
2022-12-04T08:11:33.340Z,98803.22
2022-12-04T08:14:03.777Z,98798.25
2022-12-04T08:16:33.724Z,98807.75
2022-12-04T08:19:03.591Z,98809.63
2022-12-04T08:21:32.485Z,98800.50
2022-12-04T08:24:01.721Z,98804.22
2022-12-04T08:26:31.245Z,98791.72
2022-12-04T08:29:01.374Z,98803.44
2022-12-04T08:31:31.081Z,98785.78
2022-12-04T08:34:00.208Z,98786.69
2022-12-04T08:36:30.372Z,98784.72
2022-12-04T08:38:59.375Z,98783.53
2022-12-04T08:41:28.208Z,98782.78
2022-12-04T08:43:58.032Z,98779.72
2022-12-04T08:46:27.691Z,98789.75
2022-12-04T08:48:56.620Z,98791.97
2022-12-04T08:51:26.298Z,98797.41
2022-12-04T08:53:57.230Z,98799.66
2022-12-04T08:56:25.929Z,98797.56
2022-12-04T08:58:54.552Z,98797.50
2022-12-04T09:01:22.631Z,98798.00
2022-12-04T09:03:51.064Z,98791.25
2022-12-04T09:06:19.622Z,98794.28
2022-12-04T09:08:48.076Z,98798.84
2022-12-04T09:11:18.973Z,98786.38
2022-12-04T09:13:47.398Z,98781.63
2022-12-04T09:16:17.624Z,98777.25
2022-12-04T09:18:46.349Z,98771.88
2022-12-04T09:21:16.056Z,98765.13
2022-12-04T09:23:46.055Z,98767.41
2022-12-04T09:26:21.816Z,98757.59
2022-12-04T09:28:50.862Z,98763.59
2022-12-04T09:31:19.895Z,98760.34
2022-12-04T09:33:48.553Z,98763.06
2022-12-04T09:36:17.131Z,98779.69
2022-12-04T09:38:46.286Z,98760.13
2022-12-04T09:41:25.131Z,98762.16
2022-12-04T09:43:58.020Z,98757.09
2022-12-04T09:46:28.808Z,98759.88
2022-12-04T09:48:59.913Z,98762.13
2022-12-04T09:51:29.067Z,98755.66
2022-12-04T09:54:01.090Z,98743.41
2022-12-04T09:56:31.607Z,98745.09
2022-12-04T09:59:04.774Z,98755.88
2022-12-04T10:01:37.223Z,98739.25
2022-12-04T10:04:06.780Z,98748.00
2022-12-04T10:06:40.797Z,98750.38
2022-12-04T10:09:14.162Z,98744.28
2022-12-04T10:11:51.678Z,98735.47
2022-12-04T10:14:29.602Z,98740.41
2022-12-04T10:17:19.590Z,98744.47
2022-12-04T10:19:52.395Z,98734.91
2022-12-04T10:22:25.023Z,98745.13
2022-12-04T10:24:54.634Z,98744.53
2022-12-04T10:27:27.479Z,98745.59
2022-12-04T10:30:00.193Z,98738.97
2022-12-04T10:32:33.087Z,98740.25
2022-12-04T10:35:15.803Z,98730.34
2022-12-04T10:37:45.234Z,98729.88
2022-12-04T10:40:18.702Z,98723.94
2022-12-04T10:42:52.978Z,98729.53
2022-12-04T10:45:22.732Z,98729.94
2022-12-04T10:47:51.904Z,98734.25
2022-12-04T10:50:22.425Z,98726.63
2022-12-04T10:52:50.614Z,98709.81
2022-12-04T10:55:29.323Z,98706.69
2022-12-04T10:57:58.839Z,98712.25
2022-12-04T11:00:30.683Z,98714.06
2022-12-04T11:03:01.190Z,98706.75
2022-12-04T11:05:32.447Z,98693.59
2022-12-04T11:08:02.525Z,98700.31
2022-12-04T11:10:35.494Z,98696.09
2022-12-04T11:13:08.094Z,98690.88
2022-12-04T11:15:37.665Z,98691.72
2022-12-04T11:18:09.886Z,98689.06
2022-12-04T11:20:40.741Z,98685.25
2022-12-04T11:23:16.409Z,98685.75
2022-12-04T11:25:49.123Z,98690.88
2022-12-04T11:28:40.740Z,98691.53
2022-12-04T11:31:10.870Z,98684.78
2022-12-04T11:33:40.458Z,98686.31
2022-12-04T11:36:21.134Z,98680.34
2022-12-04T11:38:49.909Z,98673.06
2022-12-04T11:41:26.596Z,98679.19
2022-12-04T11:44:00.022Z,98688.34
2022-12-04T11:46:31.721Z,98672.88
2022-12-04T11:49:00.289Z,98666.84
2022-12-04T11:51:38.287Z,98668.28
2022-12-04T11:54:12.814Z,98672.16
2022-12-04T11:56:44.312Z,98674.72
2022-12-04T11:59:34.633Z,98668.78
2022-12-04T12:02:11.610Z,98669.69
2022-12-04T12:04:54.787Z,98665.44
2022-12-04T12:07:32.694Z,98659.34
2022-12-04T12:10:05.157Z,98670.50
2022-12-04T12:12:43.393Z,98673.41
2022-12-04T12:15:20.970Z,98679.06
2022-12-04T12:17:53.155Z,98666.00
2022-12-04T12:20:23.720Z,98672.25
2022-12-04T12:23:14.012Z,98671.72
2022-12-04T12:25:52.063Z,98665.66
2022-12-04T12:28:36.124Z,98664.84
2022-12-04T12:31:16.082Z,98676.84
2022-12-04T12:33:47.571Z,98685.75
2022-12-04T12:36:17.593Z,98680.16
2022-12-04T12:38:49.988Z,98680.41
2022-12-04T12:41:20.426Z,98678.06
2022-12-04T12:43:54.370Z,98678.84
2022-12-04T12:46:27.698Z,98671.75
2022-12-04T12:49:01.754Z,98668.53
2022-12-04T12:51:35.188Z,98667.59
2022-12-04T12:54:12.988Z,98670.84
2022-12-04T12:56:49.159Z,98679.97
2022-12-04T12:59:21.146Z,98675.13
2022-12-04T13:01:58.697Z,98674.34
2022-12-04T13:04:33.721Z,98667.84
2022-12-04T13:07:09.529Z,98666.53
2022-12-04T13:09:39.143Z,98669.38
2022-12-04T13:12:12.773Z,98666.09
2022-12-04T13:14:44.678Z,98666.69
2022-12-04T13:17:30.419Z,98667.72
2022-12-04T13:19:59.484Z,98669.09
2022-12-04T13:22:33.562Z,98675.06
2022-12-04T13:25:10.059Z,98674.31
2022-12-04T13:27:47.977Z,98669.56
2022-12-04T13:30:19.087Z,98669.91
2022-12-04T13:33:09.749Z,98668.06
2022-12-04T13:35:53.879Z,98668.47
2022-12-04T13:38:29.644Z,98680.09
2022-12-04T13:40:59.904Z,98675.16
2022-12-04T13:43:36.732Z,98671.56
2022-12-04T13:46:08.259Z,98676.38
2022-12-04T13:48:39.746Z,98672.69
2022-12-04T13:51:09.649Z,98683.41
2022-12-04T13:53:40.501Z,98679.03
2022-12-04T13:56:14.878Z,98670.81
2022-12-04T13:58:43.945Z,98670.59
2022-12-04T14:01:25.813Z,98671.63
2022-12-04T14:03:57.609Z,98669.13
2022-12-04T14:06:27.921Z,98675.81
2022-12-04T14:08:58.374Z,98679.09
2022-12-04T14:11:27.687Z,98674.84
2022-12-04T14:13:57.276Z,98670.63
2022-12-04T14:16:27.203Z,98681.31
2022-12-04T14:18:58.195Z,98673.25
2022-12-04T14:21:26.656Z,98685.47
2022-12-04T14:23:54.842Z,98699.88
2022-12-04T14:26:37.450Z,98689.44
2022-12-04T14:29:31.537Z,98680.06
2022-12-04T14:32:02.135Z,98681.53
2022-12-04T14:34:32.642Z,98681.75
2022-12-04T14:37:02.207Z,98679.03
2022-12-04T14:39:31.437Z,98679.69
2022-12-04T14:42:07.722Z,98673.94
2022-12-04T14:44:35.822Z,98674.28
2022-12-04T14:47:14.983Z,98683.13
2022-12-04T14:49:51.535Z,98666.09
2022-12-04T14:52:26.581Z,98682.75
2022-12-04T14:55:02.978Z,98664.88
2022-12-04T14:57:41.546Z,98675.13
2022-12-04T15:00:16.480Z,98680.75
2022-12-04T15:02:46.093Z,98680.56
2022-12-04T15:05:20.825Z,98679.19
2022-12-04T15:07:51.528Z,98684.59
2022-12-04T15:10:40.249Z,98687.84
2022-12-04T15:13:09.471Z,98682.91
2022-12-04T15:15:38.096Z,98695.41
2022-12-04T15:18:14.043Z,98693.41
2022-12-04T15:20:56.088Z,98692.81
2022-12-04T15:23:29.389Z,98694.69
2022-12-04T15:25:59.048Z,98689.13
2022-12-04T15:28:29.349Z,98696.81
2022-12-04T15:30:58.807Z,98696.56
2022-12-04T15:33:28.551Z,98694.69
2022-12-04T15:36:00.500Z,98684.28
2022-12-04T15:38:29.197Z,98687.75
2022-12-04T15:40:58.999Z,98686.34
2022-12-04T15:43:29.850Z,98690.44
2022-12-04T15:45:58.624Z,98695.50
2022-12-04T15:48:28.735Z,98691.16
2022-12-04T15:51:00.383Z,98682.06
2022-12-04T15:53:31.105Z,98689.75
2022-12-04T15:56:01.483Z,98693.03
2022-12-04T15:58:31.140Z,98691.03
2022-12-04T16:01:00.913Z,98694.22
2022-12-04T16:03:32.045Z,98685.97
2022-12-04T16:06:07.157Z,98693.72
2022-12-04T16:08:42.468Z,98697.31
2022-12-04T16:11:25.723Z,98697.75
2022-12-04T16:14:06.538Z,98707.63
2022-12-04T16:16:35.555Z,98696.84
2022-12-04T16:19:08.471Z,98706.00
2022-12-04T16:21:38.346Z,98699.91
2022-12-04T16:24:08.972Z,98708.75
2022-12-04T16:26:37.260Z,98706.59
2022-12-04T16:29:05.715Z,98701.53
2022-12-04T16:31:34.237Z,98696.34
2022-12-04T16:34:02.462Z,98696.81
2022-12-04T16:36:30.904Z,98692.94
2022-12-04T16:39:00.894Z,98698.91
2022-12-04T16:41:29.374Z,98702.03
2022-12-04T16:43:59.849Z,98706.84
2022-12-04T16:46:30.695Z,98709.91
2022-12-04T16:49:04.277Z,98704.16
2022-12-04T16:51:37.460Z,98697.97
2022-12-04T16:54:07.024Z,98702.69
2022-12-04T16:56:35.493Z,98714.78
2022-12-04T16:59:07.702Z,98708.97
2022-12-04T17:01:42.634Z,98711.41
2022-12-04T17:04:11.076Z,98715.94
2022-12-04T17:06:39.563Z,98719.13
2022-12-04T17:09:10.023Z,98715.22
2022-12-04T17:11:38.788Z,98708.53
2022-12-04T17:14:08.097Z,98714.88
2022-12-04T17:16:36.736Z,98707.81
2022-12-04T17:19:05.665Z,98705.44
2022-12-04T17:21:34.308Z,98713.72
2022-12-04T17:24:03.267Z,98698.00
2022-12-04T17:26:33.287Z,98699.53
2022-12-04T17:29:01.391Z,98687.41
2022-12-04T17:31:29.992Z,98691.41
2022-12-04T17:33:58.692Z,98692.69
2022-12-04T17:36:27.963Z,98697.59
2022-12-04T17:38:57.084Z,98692.34
2022-12-04T17:41:25.631Z,98697.78
2022-12-04T17:43:55.282Z,98703.88
2022-12-04T17:46:24.708Z,98696.25
2022-12-04T17:48:53.196Z,98694.72
2022-12-04T17:51:23.193Z,98692.31
2022-12-04T17:53:52.069Z,98697.31
2022-12-04T17:56:21.978Z,98696.25
2022-12-04T17:58:50.306Z,98698.13
2022-12-04T18:01:22.333Z,98710.72
2022-12-04T18:03:51.292Z,98706.47
2022-12-04T18:06:21.943Z,98715.44
2022-12-04T18:08:50.714Z,98712.63
2022-12-04T18:11:20.950Z,98712.38
2022-12-04T18:13:49.401Z,98719.81
2022-12-04T18:16:17.954Z,98719.22
2022-12-04T18:18:47.910Z,98722.75
2022-12-04T18:21:16.623Z,98708.75
2022-12-04T18:23:46.035Z,98701.91
2022-12-04T18:26:16.359Z,98698.47
2022-12-04T18:28:45.030Z,98697.44
2022-12-04T18:31:14.090Z,98697.31
2022-12-04T18:33:43.239Z,98692.03
2022-12-04T18:36:16.340Z,98697.41
2022-12-04T18:38:44.862Z,98693.50
2022-12-04T18:41:14.724Z,98699.69
2022-12-04T18:43:45.273Z,98704.72
2022-12-04T18:46:16.376Z,98690.69
2022-12-04T18:48:45.946Z,98685.75
2022-12-04T18:51:17.765Z,98687.63
2022-12-04T18:53:45.977Z,98689.13
2022-12-04T18:56:14.704Z,98688.84
2022-12-04T18:58:42.975Z,98683.69
2022-12-04T19:01:12.594Z,98690.78
2022-12-04T19:03:41.361Z,98698.50
2022-12-04T19:06:09.989Z,98690.91
2022-12-04T19:08:43.029Z,98700.47
2022-12-04T19:11:15.189Z,98697.88
2022-12-04T19:13:43.143Z,98692.56
2022-12-04T19:16:12.742Z,98691.88
2022-12-04T19:18:42.328Z,98696.91
2022-12-04T19:21:10.817Z,98708.13
2022-12-04T19:23:40.745Z,98703.41
2022-12-04T19:26:09.522Z,98703.31
2022-12-04T19:28:38.182Z,98705.31
2022-12-04T19:31:06.645Z,98708.81
2022-12-04T19:33:34.793Z,98712.44
2022-12-04T19:36:05.460Z,98709.81
2022-12-04T19:38:34.174Z,98702.69
2022-12-04T19:41:06.480Z,98693.66
2022-12-04T19:43:34.673Z,98703.34
2022-12-04T19:46:03.178Z,98703.78
2022-12-04T19:48:31.351Z,98713.81
2022-12-04T19:51:04.091Z,98701.66
2022-12-04T19:53:36.256Z,98698.09
2022-12-04T19:56:11.247Z,98718.28
2022-12-04T19:58:39.499Z,98720.91
2022-12-04T20:01:09.770Z,98716.53
2022-12-04T20:03:38.053Z,98713.81
2022-12-04T20:06:07.980Z,98711.59
2022-12-04T20:08:36.447Z,98715.09
2022-12-04T20:11:05.672Z,98709.44
2022-12-04T20:13:37.301Z,98707.94
2022-12-04T20:16:06.990Z,98706.03
2022-12-04T20:18:35.884Z,98704.50
2022-12-04T20:21:05.069Z,98709.16
2022-12-04T20:23:33.166Z,98701.44
2022-12-04T20:26:05.262Z,98699.56
2022-12-04T20:28:33.604Z,98704.34
2022-12-04T20:31:12.400Z,98707.91
2022-12-04T20:33:41.303Z,98697.28
2022-12-04T20:36:10.423Z,98705.28
2022-12-04T20:38:39.120Z,98714.28
2022-12-04T20:41:09.205Z,98704.81
2022-12-04T20:43:38.146Z,98709.94
2022-12-04T20:46:16.539Z,98697.06
2022-12-04T20:48:48.335Z,98696.25
2022-12-04T20:51:17.431Z,98699.38
2022-12-04T20:53:45.866Z,98694.22
2022-12-04T20:56:14.584Z,98700.13
2022-12-04T20:58:42.834Z,98706.38
2022-12-04T21:01:13.126Z,98707.56
2022-12-04T21:03:43.204Z,98697.63
2022-12-04T21:06:13.978Z,98698.09
2022-12-04T21:08:54.468Z,98697.06
2022-12-04T21:11:23.158Z,98701.75
2022-12-04T21:14:08.634Z,98712.97
2022-12-04T21:16:37.264Z,98702.03
2022-12-04T21:19:09.552Z,98703.53
2022-12-04T21:21:38.376Z,98703.19
2022-12-04T21:24:08.649Z,98700.84
2022-12-04T21:26:37.107Z,98709.69
2022-12-04T21:29:06.481Z,98699.63
2022-12-04T21:31:35.374Z,98706.13
2022-12-04T21:34:08.003Z,98702.59
2022-12-04T21:36:36.382Z,98695.66
2022-12-04T21:39:05.177Z,98698.47
2022-12-04T21:41:51.199Z,98696.00
2022-12-04T21:44:21.143Z,98691.97
2022-12-04T21:46:50.106Z,98704.25
2022-12-04T21:49:20.331Z,98696.34
2022-12-04T21:51:57.313Z,98696.81
2022-12-04T21:54:26.872Z,98702.47
2022-12-04T21:56:55.703Z,98702.88
2022-12-04T21:59:23.831Z,98692.72
2022-12-04T22:01:52.493Z,98690.94
2022-12-04T22:04:22.375Z,98689.47
2022-12-04T22:06:54.063Z,98689.41
2022-12-04T22:09:21.980Z,98693.28
2022-12-04T22:11:50.363Z,98693.94
2022-12-04T22:14:18.466Z,98697.00
2022-12-04T22:16:47.051Z,98705.06
2022-12-04T22:19:15.622Z,98708.91
2022-12-04T22:21:45.290Z,98692.31
2022-12-04T22:24:14.684Z,98696.84
2022-12-04T22:26:42.981Z,98700.16
2022-12-04T22:29:41.943Z,98700.22
2022-12-04T22:31:59.514Z,98711.16
2022-12-04T22:34:27.527Z,98697.16
2022-12-04T22:36:57.269Z,98690.13
2022-12-04T22:39:25.427Z,98696.00
2022-12-04T22:41:53.823Z,98691.34
2022-12-04T22:44:22.003Z,98681.56
2022-12-04T22:46:50.451Z,98696.81
2022-12-04T22:49:18.591Z,98691.78
2022-12-04T22:51:46.910Z,98673.44
2022-12-04T22:54:18.304Z,98684.16
2022-12-04T22:56:46.825Z,98689.16
2022-12-04T22:59:15.170Z,98681.25
2022-12-04T23:01:43.542Z,98675.97
2022-12-04T23:04:14.945Z,98663.69
2022-12-04T23:06:43.279Z,98659.81
2022-12-04T23:09:14.633Z,98665.13
2022-12-04T23:11:45.336Z,98667.13
2022-12-04T23:14:15.794Z,98691.78
2022-12-04T23:16:44.787Z,98672.19
2022-12-04T23:19:15.669Z,98666.59
2022-12-04T23:21:44.548Z,98666.53
2022-12-04T23:24:12.911Z,98679.00
2022-12-04T23:26:42.885Z,98676.25
2022-12-04T23:32:04.855Z,98662.34
2022-12-04T23:34:33.326Z,98651.78
2022-12-04T23:37:02.104Z,98643.97
2022-12-04T23:39:30.568Z,98651.00
2022-12-04T23:41:59.021Z,98646.75
2022-12-04T23:44:28.658Z,98648.81
2022-12-04T23:46:57.170Z,98643.63
2022-12-04T23:49:25.237Z,98643.09
2022-12-04T23:51:53.512Z,98657.75
2022-12-04T23:54:21.613Z,98648.13
2022-12-04T23:56:49.949Z,98650.84
2022-12-04T23:59:18.008Z,98644.06
